createdAt,value
2022-12-19T00:00:46.401Z,4.28
2022-12-19T00:03:15.860Z,4.30
2022-12-19T00:05:45.197Z,3.78
2022-12-19T00:08:18.144Z,4.18
2022-12-19T00:10:57.440Z,3.70
2022-12-19T00:13:27.535Z,3.75
2022-12-19T00:16:02.768Z,3.80
2022-12-19T00:18:32.016Z,3.90
2022-12-19T00:21:04.029Z,3.90
2022-12-19T00:23:34.917Z,3.97
2022-12-19T00:26:13.994Z,4.32
2022-12-19T00:28:44.095Z,3.65
2022-12-19T00:31:14.236Z,3.70
2022-12-19T00:33:44.063Z,3.55
2022-12-19T00:36:16.887Z,3.80
2022-12-19T00:38:53.703Z,3.70
2022-12-19T00:41:26.313Z,3.80
2022-12-19T00:44:00.058Z,3.75
2022-12-19T00:46:31.058Z,3.53
2022-12-19T00:49:00.989Z,3.90
2022-12-19T00:51:34.457Z,4.30
2022-12-19T00:54:05.493Z,3.72
2022-12-19T00:56:38.704Z,3.63
2022-12-19T00:59:11.478Z,3.78
2022-12-19T01:01:42.567Z,3.40
2022-12-19T01:04:32.634Z,3.40
2022-12-19T01:07:07.756Z,3.58
2022-12-19T01:09:38.249Z,3.83
2022-12-19T01:12:26.352Z,4.00
2022-12-19T01:15:02.298Z,3.72
2022-12-19T01:17:43.807Z,3.92
2022-12-19T01:20:15.958Z,3.92
2022-12-19T01:22:45.670Z,4.18
2022-12-19T01:25:16.363Z,3.63
2022-12-19T01:27:47.005Z,4.03
2022-12-19T01:30:16.360Z,4.20
2022-12-19T01:32:46.054Z,3.67
2022-12-19T01:35:21.663Z,3.80
2022-12-19T01:37:51.841Z,3.50
2022-12-19T01:40:25.484Z,3.85
2022-12-19T01:42:56.183Z,3.42
2022-12-19T01:45:33.988Z,3.60
2022-12-19T01:48:15.782Z,3.83
2022-12-19T01:51:02.059Z,3.85
2022-12-19T01:53:48.273Z,4.50
2022-12-19T01:56:24.129Z,3.50
2022-12-19T01:59:05.649Z,3.92
2022-12-19T02:01:51.503Z,3.60
2022-12-19T02:04:28.257Z,3.80
2022-12-19T02:07:15.115Z,3.38
2022-12-19T02:09:47.020Z,3.63
2022-12-19T02:12:16.707Z,3.45
2022-12-19T02:14:48.005Z,5.45
2022-12-19T02:17:24.129Z,3.75
2022-12-19T02:20:24.334Z,3.47
2022-12-19T02:23:09.573Z,3.78
2022-12-19T02:26:03.088Z,3.72
2022-12-19T02:28:59.335Z,3.60
2022-12-19T02:31:33.010Z,3.75
2022-12-19T02:34:11.054Z,3.13
2022-12-19T02:36:52.130Z,3.30
2022-12-19T02:39:28.471Z,3.30
2022-12-19T02:42:00.497Z,4.20
2022-12-19T02:44:34.509Z,3.83
2022-12-19T02:47:06.997Z,3.75
2022-12-19T02:49:39.803Z,3.58
2022-12-19T02:52:13.965Z,3.90
2022-12-19T02:54:45.308Z,3.58
2022-12-19T02:57:27.403Z,3.63
2022-12-19T03:00:05.098Z,3.08
2022-12-19T03:02:50.449Z,3.97
2022-12-19T03:05:36.800Z,3.42
2022-12-19T03:08:15.225Z,3.42
2022-12-19T03:10:50.743Z,3.78
2022-12-19T03:13:27.817Z,3.95
2022-12-19T03:15:57.199Z,3.40
2022-12-19T03:18:28.360Z,3.40
2022-12-19T03:21:07.987Z,3.45
2022-12-19T03:23:37.430Z,3.42
2022-12-19T03:26:09.711Z,3.60
2022-12-19T03:28:44.336Z,3.40
2022-12-19T03:31:14.722Z,3.72
2022-12-19T03:33:48.113Z,3.60
2022-12-19T03:36:21.369Z,3.47
2022-12-19T03:38:51.321Z,3.22
2022-12-19T03:41:43.715Z,3.17
2022-12-19T03:44:15.683Z,3.10
2022-12-19T03:46:48.570Z,3.55
2022-12-19T03:49:19.337Z,3.28
2022-12-19T03:51:59.377Z,3.20
2022-12-19T03:54:32.381Z,3.28
2022-12-19T03:57:07.759Z,2.53
2022-12-19T03:59:42.304Z,3.13
2022-12-19T04:02:13.925Z,2.88
2022-12-19T04:04:52.546Z,3.28
2022-12-19T04:07:23.071Z,2.88
2022-12-19T04:09:53.861Z,3.17
2022-12-19T04:12:32.716Z,2.83
2022-12-19T04:15:02.107Z,2.80
2022-12-19T04:17:38.414Z,2.58
2022-12-19T04:20:11.199Z,2.25
2022-12-19T04:22:43.546Z,2.75
2022-12-19T04:25:15.933Z,2.70
2022-12-19T04:27:48.582Z,2.60
2022-12-19T04:30:20.175Z,3.00
2022-12-19T04:32:51.258Z,2.88
2022-12-19T04:35:22.044Z,3.00
2022-12-19T04:37:51.323Z,3.25
2022-12-19T04:40:20.698Z,2.70
2022-12-19T04:42:49.909Z,2.60
2022-12-19T04:45:19.293Z,2.80
2022-12-19T04:47:48.473Z,2.65
2022-12-19T04:50:17.996Z,2.60
2022-12-19T04:52:49.852Z,2.40
2022-12-19T04:55:21.456Z,2.72
2022-12-19T04:57:50.663Z,3.00
2022-12-19T05:00:20.158Z,2.70
2022-12-19T05:02:49.481Z,2.55
2022-12-19T05:05:19.232Z,2.60
2022-12-19T05:07:49.861Z,2.65
2022-12-19T05:10:19.664Z,2.70
2022-12-19T05:12:48.896Z,6.20
2022-12-19T05:15:18.807Z,4.13
2022-12-19T05:17:48.165Z,2.28
2022-12-19T05:20:17.692Z,2.42
2022-12-19T05:22:47.040Z,3.42
2022-12-19T05:25:17.969Z,2.80
2022-12-19T05:27:47.409Z,2.17
2022-12-19T05:30:16.892Z,3.53
2022-12-19T05:32:46.243Z,5.57
2022-12-19T05:35:15.558Z,4.32
2022-12-19T05:37:44.762Z,2.75
2022-12-19T05:40:14.444Z,5.38
2022-12-19T05:42:45.127Z,3.40
2022-12-19T05:45:14.511Z,2.92
2022-12-19T05:47:46.717Z,3.42
2022-12-19T05:50:16.312Z,2.75
2022-12-19T05:52:53.258Z,4.50
2022-12-19T05:55:22.655Z,4.72
2022-12-19T05:57:53.334Z,4.55
2022-12-19T06:00:22.795Z,3.92
2022-12-19T06:02:52.183Z,4.68
2022-12-19T06:05:21.552Z,5.75
2022-12-19T06:07:50.864Z,3.83
2022-12-19T06:10:20.111Z,3.97
2022-12-19T06:12:49.471Z,4.35
2022-12-19T06:15:20.205Z,4.80
2022-12-19T06:17:49.386Z,6.03
2022-12-19T06:20:18.839Z,2.75
2022-12-19T06:22:48.143Z,4.35
2022-12-19T06:25:17.648Z,3.10
2022-12-19T06:27:46.882Z,9.63
2022-12-19T06:30:16.548Z,6.20
2022-12-19T06:32:47.209Z,3.78
2022-12-19T06:35:16.614Z,2.83
2022-12-19T06:37:45.782Z,5.30
2022-12-19T06:40:35.083Z,4.67
2022-12-19T06:43:03.315Z,3.88
2022-12-19T06:45:33.212Z,2.85
2022-12-19T06:48:03.990Z,5.72
2022-12-19T06:50:33.243Z,3.92
2022-12-19T06:53:02.542Z,3.95
2022-12-19T06:55:31.921Z,4.00
2022-12-19T06:58:01.146Z,3.47
2022-12-19T07:00:30.447Z,4.73
2022-12-19T07:03:01.336Z,4.23
2022-12-19T07:05:32.139Z,10.43
2022-12-19T07:08:01.738Z,5.32
2022-12-19T07:10:31.463Z,3.53
2022-12-19T07:13:00.757Z,5.15
2022-12-19T07:15:31.445Z,4.88
2022-12-19T07:18:01.035Z,3.55
2022-12-19T07:20:33.095Z,3.47
2022-12-19T07:23:03.714Z,5.03
2022-12-19T07:25:33.394Z,4.23
2022-12-19T07:28:02.668Z,3.65
2022-12-19T07:30:31.904Z,4.50
2022-12-19T07:33:01.039Z,3.38
2022-12-19T07:35:30.313Z,4.90
2022-12-19T07:38:04.801Z,4.85
2022-12-19T07:40:34.592Z,7.28
2022-12-19T07:43:04.622Z,3.63
2022-12-19T07:45:34.841Z,4.38
2022-12-19T07:48:04.983Z,3.45
2022-12-19T07:50:34.528Z,3.47
2022-12-19T07:53:05.311Z,2.90
2022-12-19T07:55:34.830Z,4.75
2022-12-19T07:58:04.242Z,3.67
2022-12-19T08:00:33.540Z,2.83
2022-12-19T08:03:02.856Z,3.87
2022-12-19T08:05:32.240Z,4.40
2022-12-19T08:08:01.723Z,2.75
2022-12-19T08:10:32.588Z,2.95
2022-12-19T08:13:01.880Z,4.32
2022-12-19T08:15:31.102Z,2.65
2022-12-19T08:18:00.336Z,2.85
2022-12-19T08:20:30.123Z,5.53
2022-12-19T08:22:59.386Z,2.60
2022-12-19T08:25:28.592Z,3.00
2022-12-19T08:27:59.662Z,2.88
2022-12-19T08:30:28.965Z,2.90
2022-12-19T08:32:58.167Z,2.70
2022-12-19T08:35:27.387Z,2.20
2022-12-19T08:37:56.761Z,2.50
2022-12-19T08:40:26.458Z,2.53
2022-12-19T08:42:55.946Z,2.88
2022-12-19T08:45:26.619Z,2.72
2022-12-19T08:47:56.967Z,2.60
2022-12-19T08:50:26.419Z,2.73
2022-12-19T08:52:55.686Z,4.75
2022-12-19T08:55:25.681Z,3.08
2022-12-19T08:57:57.333Z,2.73
2022-12-19T09:00:28.162Z,2.30
2022-12-19T09:02:57.444Z,3.07
2022-12-19T09:06:05.309Z,2.40
2022-12-19T09:08:15.904Z,2.28
2022-12-19T09:10:45.410Z,3.13
2022-12-19T09:13:14.584Z,2.28
2022-12-19T09:15:45.243Z,2.10
2022-12-19T09:18:14.451Z,2.33
2022-12-19T09:20:43.811Z,2.33
2022-12-19T09:23:13.040Z,2.10
2022-12-19T09:25:42.210Z,2.13
2022-12-19T09:28:27.402Z,2.08
2022-12-19T09:31:00.366Z,2.55
2022-12-19T09:33:30.822Z,2.57
2022-12-19T09:36:00.467Z,2.67
2022-12-19T09:38:31.248Z,2.28
2022-12-19T09:41:32.285Z,2.37
2022-12-19T09:44:11.005Z,1.93
2022-12-19T09:46:50.857Z,2.05
2022-12-19T09:49:22.999Z,1.80
2022-12-19T09:51:59.244Z,2.40
2022-12-19T09:54:34.910Z,1.93
2022-12-19T09:57:07.627Z,1.83
2022-12-19T09:59:49.416Z,1.92
2022-12-19T10:02:33.508Z,1.90
2022-12-19T10:05:20.460Z,1.70
2022-12-19T10:08:08.850Z,1.70
2022-12-19T10:12:38.267Z,2.33
2022-12-19T10:13:55.172Z,1.60
2022-12-19T10:16:32.586Z,2.33
2022-12-19T10:19:06.604Z,2.25
2022-12-19T10:22:16.406Z,1.50
2022-12-19T10:25:13.443Z,1.85
2022-12-19T10:27:59.742Z,1.58
2022-12-19T10:30:34.572Z,1.42
2022-12-19T10:33:19.856Z,1.43
2022-12-19T10:35:55.719Z,1.63
2022-12-19T10:38:33.291Z,1.40
2022-12-19T10:41:16.363Z,2.45
2022-12-19T10:43:53.931Z,1.75
2022-12-19T10:46:34.105Z,1.40
2022-12-19T10:49:08.472Z,1.67
2022-12-19T10:51:39.317Z,1.83
2022-12-19T10:54:09.158Z,1.38
2022-12-19T10:56:38.432Z,1.13
2022-12-19T10:59:17.941Z,1.47
2022-12-19T11:01:51.887Z,1.27
2022-12-19T11:04:34.246Z,1.20
2022-12-19T11:07:20.965Z,1.97
2022-12-19T11:10:28.823Z,1.38
2022-12-19T11:17:27.031Z,1.55
2022-12-19T11:23:59.481Z,1.20
2022-12-19T11:28:24.879Z,1.37
2022-12-19T11:29:45.592Z,1.40
2022-12-19T11:29:54.115Z,1.33
2022-12-19T11:30:36.674Z,1.20
2022-12-19T11:33:18.487Z,1.80
2022-12-19T11:35:51.102Z,1.10
2022-12-19T11:38:27.563Z,1.20
2022-12-19T11:41:00.560Z,0.90
2022-12-19T11:43:45.356Z,1.20
2022-12-19T11:46:35.137Z,1.13
2022-12-19T11:49:11.283Z,1.33
2022-12-19T11:51:49.899Z,0.90
2022-12-19T11:54:23.749Z,1.02
2022-12-19T11:56:54.547Z,1.20
2022-12-19T11:59:33.997Z,0.95
2022-12-19T12:02:22.085Z,1.02
2022-12-19T12:05:09.593Z,1.03
2022-12-19T12:09:01.943Z,0.80
2022-12-19T12:16:04.258Z,0.95
2022-12-19T12:21:45.464Z,0.80
2022-12-19T12:27:29.996Z,1.00
2022-12-19T12:31:23.561Z,0.97
2022-12-19T12:31:28.856Z,1.00
2022-12-19T12:31:51.537Z,0.80
2022-12-19T12:31:56.046Z,1.23
2022-12-19T12:35:30.672Z,0.70
2022-12-19T12:41:02.836Z,0.93
2022-12-19T12:44:00.106Z,0.93
2022-12-19T12:46:35.573Z,1.10
2022-12-19T12:49:07.863Z,0.90
2022-12-19T12:51:38.580Z,0.77
2022-12-19T12:54:13.336Z,0.60
2022-12-19T12:56:43.507Z,0.82
2022-12-19T12:59:32.270Z,0.70
2022-12-19T13:02:08.890Z,0.90
2022-12-19T13:04:47.081Z,0.70
2022-12-19T13:07:30.733Z,0.60
2022-12-19T13:10:24.022Z,0.60
2022-12-19T13:13:01.792Z,0.80
2022-12-19T13:15:43.953Z,0.50
2022-12-19T13:18:38.037Z,0.70
2022-12-19T13:21:10.654Z,0.77
2022-12-19T13:24:16.209Z,1.58
2022-12-19T13:26:50.140Z,0.63
2022-12-19T13:29:31.743Z,0.70
2022-12-19T13:32:16.559Z,0.65
2022-12-19T13:35:04.007Z,0.60
2022-12-19T13:40:01.897Z,0.60
2022-12-19T13:40:56.959Z,0.57
2022-12-19T13:43:46.341Z,1.10
2022-12-19T13:46:30.655Z,0.60
2022-12-19T13:49:05.389Z,0.60
2022-12-19T13:51:44.618Z,0.57
2022-12-19T13:54:23.094Z,0.70
2022-12-19T13:56:53.203Z,0.73
2022-12-19T13:59:25.101Z,1.43
2022-12-19T14:01:55.524Z,0.50
2022-12-19T14:04:30.662Z,0.80
2022-12-19T14:07:02.857Z,0.60
2022-12-19T14:11:27.416Z,0.50
2022-12-19T14:13:51.075Z,0.60
2022-12-19T14:15:37.923Z,0.50
2022-12-19T14:18:42.363Z,0.60
2022-12-19T14:22:11.741Z,0.80
2022-12-19T14:24:13.244Z,0.50
2022-12-19T14:28:23.895Z,0.60
2022-12-19T14:30:28.572Z,0.80
2022-12-19T14:33:41.970Z,0.80
2022-12-19T14:36:08.613Z,0.67
2022-12-19T14:39:20.543Z,0.63
2022-12-19T14:41:09.253Z,0.40
2022-12-19T14:44:00.137Z,0.53
2022-12-19T14:53:17.437Z,0.80
2022-12-19T14:54:00.623Z,0.90
2022-12-19T14:54:31.517Z,0.47
2022-12-19T14:56:14.096Z,0.47
2022-12-19T14:58:54.601Z,0.33
2022-12-19T15:01:26.475Z,0.40
2022-12-19T15:04:48.862Z,0.83
2022-12-19T15:07:07.035Z,0.75
2022-12-19T15:11:03.469Z,0.45
2022-12-19T15:14:49.362Z,0.40
2022-12-19T15:16:00.738Z,3.20
2022-12-19T15:18:40.413Z,1.73
2022-12-19T15:21:12.826Z,1.90
2022-12-19T15:23:42.473Z,3.08
2022-12-19T15:26:16.480Z,1.65
2022-12-19T15:28:50.861Z,0.93
2022-12-19T15:31:30.292Z,0.65
2022-12-19T15:34:33.147Z,0.45
2022-12-19T15:36:50.053Z,0.73
2022-12-19T15:39:19.912Z,1.42
2022-12-19T15:41:51.874Z,0.45
2022-12-19T15:44:27.840Z,0.57
2022-12-19T15:46:57.723Z,0.93
2022-12-19T15:49:27.353Z,0.60
2022-12-19T15:51:56.621Z,4.25
2022-12-19T15:57:23.959Z,5.30
2022-12-19T15:59:57.601Z,3.75
2022-12-19T16:02:49.399Z,1.05
2022-12-19T16:05:17.767Z,6.68
2022-12-19T16:07:47.281Z,2.25
2022-12-19T16:10:17.067Z,3.42
2022-12-19T16:12:50.007Z,4.25
2022-12-19T16:15:25.432Z,3.13
2022-12-19T16:17:55.453Z,3.00
2022-12-19T16:20:26.943Z,4.03
2022-12-19T16:22:56.651Z,3.10
2022-12-19T16:25:32.701Z,4.10
2022-12-19T16:28:03.169Z,1.90
2022-12-19T16:30:35.747Z,3.67
2022-12-19T16:33:05.191Z,2.28
2022-12-19T16:36:03.056Z,1.20
2022-12-19T16:38:24.411Z,1.00
2022-12-19T16:40:54.419Z,1.10
2022-12-19T16:43:30.155Z,1.00
2022-12-19T16:46:02.083Z,2.60
2022-12-19T16:48:31.741Z,2.83
2022-12-19T16:51:01.339Z,3.25
2022-12-19T16:53:31.369Z,2.33
2022-12-19T16:56:01.908Z,0.75
2022-12-19T16:58:31.410Z,0.90
2022-12-19T17:01:02.243Z,1.02
2022-12-19T17:03:36.336Z,0.75
2022-12-19T17:06:05.966Z,0.50
2022-12-19T17:08:35.353Z,1.17
2022-12-19T17:11:05.167Z,0.45
2022-12-19T17:13:34.910Z,3.33
2022-12-19T17:16:06.413Z,0.60
2022-12-19T17:18:40.346Z,9.05
2022-12-19T17:21:12.092Z,1.92
2022-12-19T17:23:41.947Z,5.05
2022-12-19T17:26:17.286Z,3.75
2022-12-19T17:28:48.649Z,3.08
2022-12-19T17:31:24.791Z,6.78
2022-12-19T17:33:56.908Z,5.63
2022-12-19T17:36:34.671Z,3.10
2022-12-19T17:39:18.441Z,2.20
2022-12-19T17:41:48.181Z,3.58
2022-12-19T17:44:17.629Z,3.15
2022-12-19T17:46:49.748Z,6.65
2022-12-19T17:49:21.969Z,2.75
2022-12-19T17:51:53.183Z,5.45
2022-12-19T17:54:23.337Z,1.63
2022-12-19T17:56:53.047Z,1.17
2022-12-19T17:59:22.688Z,2.17
2022-12-19T18:01:53.964Z,2.28
2022-12-19T18:04:23.682Z,1.50
2022-12-19T18:06:52.939Z,1.77
2022-12-19T18:09:24.357Z,1.83
2022-12-19T18:11:54.306Z,1.00
2022-12-19T18:14:23.720Z,0.60
2022-12-19T18:16:54.502Z,1.75
2022-12-19T18:19:26.018Z,0.82
2022-12-19T18:21:55.436Z,2.08
2022-12-19T18:24:26.351Z,1.65
2022-12-19T18:26:55.853Z,1.40
2022-12-19T18:29:26.045Z,3.85
2022-12-19T18:31:57.046Z,2.17
2022-12-19T18:34:28.321Z,1.90
2022-12-19T18:36:57.620Z,1.58
2022-12-19T18:39:27.865Z,2.45
2022-12-19T18:41:57.234Z,0.85
2022-12-19T18:44:26.495Z,0.73
2022-12-19T18:46:57.336Z,2.03
2022-12-19T18:49:28.811Z,2.00
2022-12-19T18:51:58.124Z,1.95
2022-12-19T18:54:27.416Z,5.68
2022-12-19T18:56:57.253Z,3.75
2022-12-19T18:59:26.809Z,7.15
2022-12-19T19:01:57.888Z,3.08
2022-12-19T19:04:27.400Z,5.40
2022-12-19T19:06:56.584Z,2.30
2022-12-19T19:09:25.899Z,1.27
2022-12-19T19:12:18.378Z,1.65
2022-12-19T19:14:47.715Z,1.85
2022-12-19T19:17:27.012Z,2.70
2022-12-19T19:19:57.248Z,1.75
2022-12-19T19:22:26.648Z,0.52
2022-12-19T19:24:55.911Z,0.70
2022-12-19T19:27:25.291Z,0.68
2022-12-19T19:29:54.705Z,0.80
2022-12-19T19:32:26.974Z,2.88
2022-12-19T19:34:56.434Z,1.75
2022-12-19T19:37:25.769Z,0.32
2022-12-19T19:39:55.109Z,2.08
2022-12-19T19:42:24.375Z,0.77
2022-12-19T19:44:53.832Z,0.65
2022-12-19T19:47:28.506Z,2.60
2022-12-19T19:49:58.002Z,1.17
2022-12-19T19:52:27.342Z,1.52
2022-12-19T19:54:56.684Z,0.52
2022-12-19T19:57:25.947Z,2.88
2022-12-19T19:59:55.368Z,0.30
2022-12-19T20:02:25.367Z,1.05
2022-12-19T20:04:56.307Z,0.60
2022-12-19T20:07:25.721Z,1.92
2022-12-19T20:09:55.131Z,2.25
2022-12-19T20:12:24.571Z,1.20
2022-12-19T20:14:53.962Z,2.85
2022-12-19T20:17:23.322Z,4.13
2022-12-19T20:19:52.752Z,3.70
2022-12-19T20:22:23.585Z,0.50
2022-12-19T20:24:54.054Z,0.40
2022-12-19T20:27:23.382Z,3.25
2022-12-19T20:29:52.892Z,1.80
2022-12-19T20:32:22.316Z,0.40
2022-12-19T20:34:51.625Z,1.70
2022-12-19T20:37:22.515Z,2.90
2022-12-19T20:39:52.237Z,1.67
2022-12-19T20:42:21.555Z,4.53
2022-12-19T20:44:50.854Z,2.25
2022-12-19T20:47:20.411Z,2.05
2022-12-19T20:49:49.822Z,3.00
2022-12-19T20:52:19.200Z,2.78
2022-12-19T20:54:50.683Z,2.75
2022-12-19T20:57:19.905Z,6.93
2022-12-19T20:59:49.351Z,4.47
2022-12-19T21:02:18.771Z,3.65
2022-12-19T21:04:48.285Z,3.85
2022-12-19T21:07:17.533Z,5.15
2022-12-19T21:09:46.785Z,3.60
2022-12-19T21:12:17.487Z,5.55
2022-12-19T21:14:46.830Z,3.55
2022-12-19T21:17:16.251Z,3.20
2022-12-19T21:19:45.585Z,14.35
2022-12-19T21:22:14.791Z,2.28
2022-12-19T21:24:44.128Z,3.25
2022-12-19T21:27:13.364Z,1.45
2022-12-19T21:29:44.049Z,1.48
2022-12-19T21:32:18.679Z,1.35
2022-12-19T21:34:48.279Z,1.42
2022-12-19T21:37:17.473Z,1.52
2022-12-19T21:39:46.738Z,0.80
2022-12-19T21:42:16.164Z,1.88
2022-12-19T21:44:46.796Z,1.42
2022-12-19T21:47:16.720Z,1.27
2022-12-19T21:49:46.164Z,0.98
2022-12-19T21:52:15.317Z,1.17
2022-12-19T21:54:44.503Z,0.90
2022-12-19T21:57:13.672Z,0.45
2022-12-19T21:59:42.989Z,1.67
2022-12-19T22:02:13.723Z,1.05
2022-12-19T22:04:43.100Z,0.70
2022-12-19T22:07:12.264Z,0.88
2022-12-19T22:09:41.695Z,1.08
2022-12-19T22:12:12.514Z,0.30
2022-12-19T22:14:41.810Z,1.65
2022-12-19T22:17:13.612Z,1.25
2022-12-19T22:19:42.930Z,0.93
2022-12-19T22:22:12.512Z,1.27
2022-12-19T22:24:41.757Z,1.55
2022-12-19T22:27:11.036Z,2.10
2022-12-19T22:29:40.350Z,1.70
2022-12-19T22:32:09.583Z,1.92
2022-12-19T22:34:40.328Z,0.38
2022-12-19T22:37:09.737Z,0.35
2022-12-19T22:39:39.197Z,0.30
2022-12-19T22:42:08.593Z,1.42
2022-12-19T22:44:37.972Z,1.50
2022-12-19T22:47:07.362Z,1.08
2022-12-19T22:49:36.591Z,0.50
2022-12-19T22:52:07.301Z,0.82
2022-12-19T22:54:36.487Z,0.47
2022-12-19T22:57:05.915Z,1.02
2022-12-19T22:59:35.279Z,0.55
2022-12-19T23:02:04.634Z,0.70
2022-12-19T23:04:33.917Z,1.83
2022-12-19T23:07:03.468Z,0.40
2022-12-19T23:09:34.151Z,0.70
2022-12-19T23:12:03.390Z,0.70
2022-12-19T23:14:32.611Z,1.27
2022-12-19T23:17:01.898Z,0.47
2022-12-19T23:19:31.174Z,0.38
2022-12-19T23:22:02.299Z,1.17
2022-12-19T23:24:31.676Z,1.13
2022-12-19T23:27:03.866Z,1.00
2022-12-19T23:29:33.096Z,1.45
2022-12-19T23:32:02.417Z,0.50
2022-12-19T23:34:31.755Z,0.68
2022-12-19T23:37:16.284Z,0.32
2022-12-19T23:39:45.560Z,0.73
2022-12-19T23:42:16.378Z,0.40
2022-12-19T23:44:45.763Z,0.73
2022-12-19T23:47:15.105Z,0.43
2022-12-19T23:49:44.448Z,0.68
2022-12-19T23:52:13.707Z,0.55
2022-12-19T23:54:42.991Z,0.68
2022-12-19T23:57:12.188Z,0.57
2022-12-19T23:59:43.129Z,0.70
